Terminal Aerodrome Forecast
Issued by NWS

Home | Current Version | Previous Version | Text Only | Print | Product List | Glossary On
Versions: 1 2 3 4 5 6 7 8 9 10 11 12 13 14 15 16 17 18 19 20 21 22 23 24 25
000
FTUS46 KMTR 251720
TAFSFO
TAF
KSFO 251720Z 2518/2624 28014G20KT P6SM FEW030 SCT120
     FM252100 28017G24KT P6SM FEW018 FEW025 SCT100
     FM260400 28011KT P6SM FEW018 FEW030 SCT080
     FM260600 27010KT P6SM FEW015 SCT020 BKN050
     FM261500 28014KT P6SM VCSH FEW015 SCT025 BKN030
     FM262000 26016G20KT P6SM SCT020 SCT050=

USA.gov is the U.S. government's official web portal to all federal, state and local government web resources and services.